createdAt,value
2019-05-02T00:00:49.936Z,6.17
2019-05-02T00:02:50.006Z,6.16
2019-05-02T00:04:57.162Z,6.14
2019-05-02T00:06:50.537Z,6.14
2019-05-02T00:08:50.510Z,6.13
2019-05-02T00:10:50.613Z,6.11
2019-05-02T00:12:50.612Z,6.09
2019-05-02T00:14:50.717Z,6.07
2019-05-02T00:16:50.800Z,6.05
2019-05-02T00:18:49.810Z,6.05
2019-05-02T00:20:49.938Z,6.01
2019-05-02T00:22:53.675Z,6.02
2019-05-02T00:24:49.731Z,6.01
2019-05-02T00:26:49.879Z,6.00
2019-05-02T00:28:50.241Z,5.99
2019-05-02T00:30:50.364Z,5.93
2019-05-02T00:32:59.730Z,5.90
2019-05-02T00:34:50.195Z,5.83
2019-05-02T00:36:50.374Z,5.82
2019-05-02T00:38:50.545Z,5.85
2019-05-02T00:40:50.623Z,5.83
2019-05-02T00:42:59.784Z,5.80
2019-05-02T00:44:49.923Z,5.77
2019-05-02T00:46:50.071Z,5.74
2019-05-02T00:49:01.998Z,5.71
2019-05-02T00:50:52.723Z,5.70
2019-05-02T00:52:49.780Z,5.64
2019-05-02T00:54:49.837Z,5.62
2019-05-02T00:56:49.959Z,5.61
2019-05-02T00:58:50.077Z,5.59
2019-05-02T01:00:55.003Z,5.57
2019-05-02T01:02:50.060Z,5.55
2019-05-02T01:04:50.423Z,5.53
2019-05-02T01:06:51.069Z,5.49
2019-05-02T01:08:50.135Z,5.46
2019-05-02T01:10:58.142Z,5.42
2019-05-02T01:12:50.279Z,5.42
2019-05-02T01:14:50.256Z,5.39
2019-05-02T01:16:56.486Z,5.36
2019-05-02T01:18:50.673Z,5.35
2019-05-02T01:20:49.819Z,5.35
2019-05-02T01:22:53.866Z,5.38
2019-05-02T01:24:49.974Z,5.39
2019-05-02T01:26:50.254Z,5.37
2019-05-02T01:28:55.967Z,5.32
2019-05-02T01:30:50.173Z,5.29
2019-05-02T01:32:50.281Z,5.28
2019-05-02T01:34:56.626Z,5.25
2019-05-02T01:36:49.955Z,5.20
2019-05-02T01:38:49.941Z,5.15
2019-05-02T01:40:55.018Z,5.10
2019-05-02T01:42:51.391Z,5.07
2019-05-02T01:44:50.462Z,5.02
2019-05-02T01:47:00.178Z,5.00
2019-05-02T01:48:50.190Z,5.01
2019-05-02T01:50:50.250Z,5.03
2019-05-02T01:53:00.252Z,5.01
2019-05-02T01:54:50.328Z,5.00
2019-05-02T01:56:50.642Z,4.99
2019-05-02T01:58:59.008Z,4.96
2019-05-02T02:00:50.104Z,4.95
2019-05-02T02:02:50.145Z,4.90
2019-05-02T02:04:58.199Z,4.86
2019-05-02T02:06:50.478Z,4.82
2019-05-02T02:08:49.841Z,4.82
2019-05-02T02:10:58.377Z,4.78
2019-05-02T02:13:05.515Z,4.76
2019-05-02T02:14:55.743Z,4.73
2019-05-02T02:16:49.944Z,4.71
2019-05-02T02:18:49.943Z,4.68
2019-05-02T02:20:50.584Z,4.64
2019-05-02T02:22:50.620Z,4.61
2019-05-02T02:24:49.679Z,4.56
2019-05-02T02:26:50.230Z,4.54
2019-05-02T02:28:50.249Z,4.51
2019-05-02T02:30:50.368Z,4.50
2019-05-02T02:32:50.463Z,4.50
2019-05-02T02:34:49.878Z,4.53
2019-05-02T02:36:50.135Z,4.61
2019-05-02T02:38:50.323Z,4.61
2019-05-02T02:40:50.382Z,4.57
2019-05-02T02:42:50.507Z,4.52
2019-05-02T02:44:50.534Z,4.52
2019-05-02T02:46:50.542Z,4.52
2019-05-02T02:48:50.632Z,4.51
2019-05-02T02:50:49.886Z,4.49
2019-05-02T02:52:49.933Z,4.46
2019-05-02T02:54:50.101Z,4.45
2019-05-02T02:56:50.291Z,4.44
2019-05-02T02:58:50.465Z,4.43
2019-05-02T03:00:50.508Z,4.41
2019-05-02T03:02:50.711Z,4.37
2019-05-02T03:04:50.106Z,4.32
2019-05-02T03:06:50.317Z,4.30
2019-05-02T03:08:50.367Z,4.29
2019-05-02T03:10:50.429Z,4.28
2019-05-02T03:12:50.512Z,4.26
2019-05-02T03:14:50.566Z,4.26
2019-05-02T03:16:50.054Z,4.23
2019-05-02T03:18:50.187Z,4.25
2019-05-02T03:20:50.209Z,4.24
2019-05-02T03:22:50.369Z,4.22
2019-05-02T03:24:50.353Z,4.21
2019-05-02T03:26:58.877Z,4.19
2019-05-02T03:29:01.161Z,4.17
2019-05-02T03:30:50.063Z,4.15
2019-05-02T03:33:12.444Z,4.20
2019-05-02T03:34:54.714Z,4.20
2019-05-02T03:36:50.061Z,4.18
2019-05-02T03:38:50.084Z,4.15
2019-05-02T03:40:50.232Z,4.12
2019-05-02T03:42:50.291Z,4.10
2019-05-02T03:45:05.589Z,4.10
2019-05-02T03:47:05.227Z,4.10
2019-05-02T03:48:49.867Z,4.07
2019-05-02T03:50:49.987Z,4.06
2019-05-02T03:52:50.087Z,4.05
2019-05-02T03:54:53.049Z,4.03
2019-05-02T03:56:53.715Z,4.04
2019-05-02T03:58:58.698Z,4.05
2019-05-02T04:01:04.201Z,4.05
2019-05-02T04:03:02.663Z,4.06
2019-05-02T04:05:03.000Z,4.09
2019-05-02T04:07:03.401Z,4.10
2019-05-02T04:09:02.321Z,4.10
2019-05-02T04:11:01.980Z,4.11
2019-05-02T04:13:00.070Z,4.13
2019-05-02T04:14:57.644Z,4.11
2019-05-02T04:16:57.595Z,4.10
2019-05-02T04:18:58.580Z,4.10
2019-05-02T04:20:52.404Z,4.09
2019-05-02T04:22:51.226Z,4.09
2019-05-02T04:24:57.359Z,4.09
2019-05-02T04:26:56.659Z,4.09
2019-05-02T04:28:54.002Z,4.10
2019-05-02T04:30:54.261Z,4.14
2019-05-02T04:32:57.990Z,4.20
2019-05-02T04:34:58.362Z,4.27
2019-05-02T04:37:04.366Z,4.32
2019-05-02T04:38:53.211Z,4.32
2019-05-02T04:40:50.314Z,4.42
2019-05-02T04:43:11.638Z,4.46
2019-05-02T04:45:26.156Z,4.48
2019-05-02T04:46:49.862Z,4.53
2019-05-02T04:48:53.515Z,4.59
2019-05-02T04:51:13.627Z,4.62
2019-05-02T04:52:54.498Z,4.72
2019-05-02T04:54:50.658Z,4.80
2019-05-02T04:56:55.781Z,4.85
2019-05-02T04:58:50.116Z,4.93
2019-05-02T05:01:02.178Z,4.96
2019-05-02T05:02:53.591Z,5.06
2019-05-02T05:04:50.129Z,5.14
2019-05-02T05:07:01.677Z,5.14
2019-05-02T05:08:50.409Z,5.31
2019-05-02T05:10:50.558Z,5.38
2019-05-02T05:12:50.555Z,5.47
2019-05-02T05:14:50.652Z,5.51
2019-05-02T05:16:58.271Z,5.63
2019-05-02T05:18:53.545Z,5.79
2019-05-02T05:20:54.608Z,5.91
2019-05-02T05:22:50.564Z,6.08
2019-05-02T05:24:50.594Z,6.21
2019-05-02T05:26:49.734Z,6.34
2019-05-02T05:28:50.736Z,6.34
2019-05-02T05:30:52.555Z,6.52
2019-05-02T05:32:49.727Z,6.58
2019-05-02T05:34:50.079Z,6.69
2019-05-02T05:36:49.808Z,6.84
2019-05-02T05:38:49.868Z,6.96
2019-05-02T05:40:50.618Z,7.11
2019-05-02T05:42:50.566Z,7.22
2019-05-02T05:44:50.673Z,7.37
2019-05-02T05:46:50.032Z,7.48
2019-05-02T05:48:50.127Z,7.69
2019-05-02T05:50:50.156Z,7.93
2019-05-02T05:52:52.339Z,8.08
2019-05-02T05:54:50.410Z,8.35
2019-05-02T05:56:50.573Z,8.63
2019-05-02T05:58:52.932Z,8.89
2019-05-02T06:00:58.597Z,8.99
2019-05-02T06:03:13.992Z,9.12
2019-05-02T06:05:03.637Z,9.17
2019-05-02T06:07:03.356Z,9.33
2019-05-02T06:08:55.647Z,9.48
2019-05-02T06:10:49.724Z,9.61
2019-05-02T06:12:49.704Z,9.87
2019-05-02T06:14:49.757Z,10.03
2019-05-02T06:16:53.464Z,10.00
2019-05-02T06:18:50.516Z,9.98
2019-05-02T06:20:50.591Z,10.12
2019-05-02T06:22:59.853Z,10.06
2019-05-02T06:24:52.394Z,10.03
2019-05-02T06:26:52.183Z,9.96
2019-05-02T06:28:50.167Z,9.89
2019-05-02T06:30:50.250Z,9.84
2019-05-02T06:32:56.784Z,9.88
2019-05-02T06:34:50.226Z,10.08
2019-05-02T06:36:50.441Z,10.23
2019-05-02T06:38:57.982Z,10.26
2019-05-02T06:40:50.080Z,10.53
2019-05-02T06:42:50.171Z,10.65
2019-05-02T06:44:50.194Z,10.83
2019-05-02T06:46:50.309Z,11.01
2019-05-02T06:48:53.912Z,11.29
2019-05-02T06:50:49.883Z,11.41
2019-05-02T06:52:49.897Z,11.53
2019-05-02T06:54:59.244Z,11.72
2019-05-02T06:56:50.480Z,11.93
2019-05-02T06:58:50.627Z,11.95
2019-05-02T07:00:59.328Z,11.90
2019-05-02T07:02:50.433Z,11.81
2019-05-02T07:04:56.187Z,11.86
2019-05-02T07:07:00.370Z,11.95
2019-05-02T07:08:51.073Z,12.06
2019-05-02T07:10:50.361Z,12.13
2019-05-02T07:13:13.195Z,12.21
2019-05-02T07:14:50.117Z,12.30
2019-05-02T07:16:56.672Z,12.46
2019-05-02T07:18:50.047Z,12.68
2019-05-02T07:20:50.125Z,12.68
2019-05-02T07:22:50.163Z,12.72
2019-05-02T07:24:50.281Z,12.60
2019-05-02T07:26:58.282Z,12.74
2019-05-02T07:28:50.363Z,12.82
2019-05-02T07:30:50.387Z,12.87
2019-05-02T07:32:50.448Z,13.10
2019-05-02T07:34:49.907Z,13.13
2019-05-02T07:36:50.025Z,13.13
2019-05-02T07:38:50.064Z,13.13
2019-05-02T07:40:54.519Z,13.35
2019-05-02T07:42:50.514Z,13.48
2019-05-02T07:44:50.581Z,13.56
2019-05-02T07:47:02.771Z,13.56
2019-05-02T07:48:56.824Z,13.87
2019-05-02T07:50:51.219Z,13.91
2019-05-02T07:52:49.918Z,14.15
2019-05-02T07:54:49.926Z,14.44
2019-05-02T07:56:54.899Z,14.67
2019-05-02T07:58:50.009Z,14.8
2019-05-02T08:00:50.028Z,14.9
2019-05-02T08:02:50.018Z,15.0
2019-05-02T08:04:50.388Z,15.0
2019-05-02T08:06:49.683Z,15.1
2019-05-02T08:08:49.830Z,15.2
2019-05-02T08:11:03.436Z,15.40
2019-05-02T08:12:50.145Z,15.13
2019-05-02T08:14:50.185Z,15.40
2019-05-02T08:16:50.416Z,15.40
2019-05-02T08:18:50.494Z,15.64
2019-05-02T08:20:57.508Z,15.8
2019-05-02T08:22:51.154Z,15.8
2019-05-02T08:24:50.165Z,15.81
2019-05-02T08:26:59.758Z,15.64
2019-05-02T08:28:53.499Z,15.60
2019-05-02T08:30:50.511Z,15.59
2019-05-02T08:32:50.535Z,15.73
2019-05-02T08:34:53.736Z,15.79
2019-05-02T08:36:49.986Z,15.93
2019-05-02T08:38:55.664Z,16.31
2019-05-02T08:40:50.676Z,16.47
2019-05-02T08:42:49.708Z,16.39
2019-05-02T08:45:02.825Z,16.34
2019-05-02T08:46:53.511Z,16.40
2019-05-02T08:48:51.195Z,16.26
2019-05-02T08:50:50.322Z,16.18
2019-05-02T08:52:50.368Z,16.31
2019-05-02T08:54:50.375Z,16.57
2019-05-02T08:57:00.733Z,16.72
2019-05-02T08:58:51.491Z,16.9
2019-05-02T09:00:50.499Z,17.0
2019-05-02T09:02:50.521Z,17.0
2019-05-02T09:05:04.894Z,17.0
2019-05-02T09:07:00.942Z,17.02
2019-05-02T09:08:53.088Z,17.2
2019-05-02T09:10:50.170Z,17.2
2019-05-02T09:12:52.355Z,17.29
2019-05-02T09:14:52.421Z,17.20
2019-05-02T09:16:52.645Z,16.85
2019-05-02T09:18:54.628Z,16.74
2019-05-02T09:20:56.998Z,16.75
2019-05-02T09:22:56.330Z,16.73
2019-05-02T09:24:52.291Z,16.65
2019-05-02T09:26:52.232Z,16.65
2019-05-02T09:29:05.334Z,16.91
2019-05-02T09:31:05.126Z,17.08
2019-05-02T09:32:52.361Z,17.12
2019-05-02T09:35:04.725Z,17.24
2019-05-02T09:36:50.351Z,17.33
2019-05-02T09:38:57.922Z,17.50
2019-05-02T09:40:56.557Z,17.5
2019-05-02T09:43:04.843Z,17.34
2019-05-02T09:44:57.303Z,17.28
2019-05-02T09:46:57.476Z,17.52
2019-05-02T09:48:52.288Z,17.5
2019-05-02T09:50:50.342Z,17.5
2019-05-02T09:52:52.757Z,17.54
2019-05-02T09:54:51.938Z,17.6
2019-05-02T09:56:52.694Z,17.6
2019-05-02T09:59:26.170Z,17.6
2019-05-02T10:00:49.885Z,17.6
2019-05-02T10:02:49.945Z,17.6
2019-05-02T10:04:52.673Z,17.7
2019-05-02T10:06:52.768Z,17.7
2019-05-02T10:08:52.359Z,17.7
2019-05-02T10:10:52.524Z,17.8
2019-05-02T10:12:52.385Z,17.8
2019-05-02T10:14:52.788Z,17.8
2019-05-02T10:16:50.156Z,17.9
2019-05-02T10:18:52.669Z,17.9
2019-05-02T10:20:49.843Z,18.0
2019-05-02T10:22:49.870Z,18.1
2019-05-02T10:24:52.247Z,18.2
2019-05-02T10:27:08.325Z,18.2
2019-05-02T10:28:53.705Z,18.2
2019-05-02T10:30:57.055Z,18.2
2019-05-02T10:32:57.638Z,18.2
2019-05-02T10:34:57.200Z,18.3
2019-05-02T10:37:03.148Z,18.3
2019-05-02T10:39:01.362Z,18.3
2019-05-02T10:41:04.908Z,18.4
2019-05-02T10:42:52.559Z,18.4
2019-05-02T10:44:52.432Z,18.5
2019-05-02T10:46:49.716Z,18.6
2019-05-02T10:48:52.815Z,18.6
2019-05-02T10:50:49.889Z,18.7
2019-05-02T10:52:49.847Z,18.8
2019-05-02T10:54:49.917Z,18.9
2019-05-02T10:56:52.121Z,18.9
2019-05-02T10:58:52.598Z,19.0
2019-05-02T11:00:49.723Z,19.1
2019-05-02T11:02:49.791Z,19.2
2019-05-02T11:04:52.227Z,19.2
2019-05-02T11:06:52.022Z,19.2
2019-05-02T11:08:52.658Z,19.2
2019-05-02T11:10:49.774Z,19.4
2019-05-02T11:12:49.795Z,19.4
2019-05-02T11:14:51.976Z,19.4
2019-05-02T11:16:50.098Z,19.6
2019-05-02T11:18:52.928Z,19.7
2019-05-02T11:20:50.025Z,19.8
2019-05-02T11:22:54.871Z,19.8
2019-05-02T11:24:49.917Z,19.9
2019-05-02T11:26:50.039Z,20.0
2019-05-02T11:28:52.488Z,20.1
2019-05-02T11:31:01.243Z,20.2
2019-05-02T11:32:52.441Z,20.2
2019-05-02T11:34:49.939Z,20.3
2019-05-02T11:36:52.749Z,20.4
2019-05-02T11:39:25.235Z,20.4
2019-05-02T11:40:52.235Z,20.4
2019-05-02T11:42:52.431Z,20.4
2019-05-02T11:44:52.655Z,20.4
2019-05-02T11:46:51.920Z,20.3
2019-05-02T11:48:58.952Z,20.4
2019-05-02T11:50:52.559Z,20.4
2019-05-02T11:52:52.675Z,20.25
2019-05-02T11:54:52.460Z,20.4
2019-05-02T11:56:53.863Z,20.4
2019-05-02T11:58:53.010Z,20.5
2019-05-02T12:00:52.579Z,20.4
2019-05-02T12:02:58.607Z,20.5
2019-05-02T12:04:55.794Z,20.48
2019-05-02T12:07:05.087Z,20.20
2019-05-02T12:08:50.018Z,19.47
2019-05-02T12:10:52.310Z,19.11
2019-05-02T12:12:52.875Z,19.11
2019-05-02T12:14:49.989Z,19.48
2019-05-02T12:16:50.161Z,19.41
2019-05-02T12:18:50.260Z,19.26
2019-05-02T12:20:52.471Z,19.16
2019-05-02T12:22:52.915Z,19.50
2019-05-02T12:24:52.243Z,20.10
2019-05-02T12:26:52.962Z,20.34
2019-05-02T12:28:50.046Z,20.28
2019-05-02T12:30:52.285Z,20.14
2019-05-02T12:32:50.288Z,20.4
2019-05-02T12:34:49.799Z,20.4
2019-05-02T12:36:49.923Z,20.39
2019-05-02T12:38:50.280Z,20.29
2019-05-02T12:40:52.412Z,20.19
2019-05-02T12:42:52.672Z,20.16
2019-05-02T12:44:49.798Z,20.26
2019-05-02T12:46:52.146Z,20.4
2019-05-02T12:48:52.399Z,20.4
2019-05-02T12:50:52.986Z,20.31
2019-05-02T12:52:54.051Z,19.69
2019-05-02T12:54:49.766Z,19.06
2019-05-02T12:56:49.995Z,18.80
2019-05-02T12:58:50.063Z,18.70
2019-05-02T13:00:50.450Z,18.70
2019-05-02T13:02:50.002Z,18.66
2019-05-02T13:04:50.418Z,18.92
2019-05-02T13:06:49.910Z,19.10
2019-05-02T13:08:52.767Z,19.96
2019-05-02T13:11:07.070Z,20.3
2019-05-02T13:12:50.420Z,20.4
2019-05-02T13:14:50.387Z,20.4
2019-05-02T13:17:05.928Z,20.4
2019-05-02T13:18:52.309Z,20.4
2019-05-02T13:20:50.318Z,20.4
2019-05-02T13:22:52.974Z,20.4
2019-05-02T13:24:56.548Z,20.4
2019-05-02T13:27:04.290Z,20.4
2019-05-02T13:28:51.978Z,20.43
2019-05-02T13:30:52.003Z,20.30
2019-05-02T13:32:58.201Z,20.24
2019-05-02T13:34:57.405Z,20.50
2019-05-02T13:36:52.301Z,20.46
2019-05-02T13:38:52.183Z,20.56
2019-05-02T13:40:52.058Z,20.5
2019-05-02T13:42:52.101Z,20.6
2019-05-02T13:44:52.915Z,20.6
2019-05-02T13:46:49.992Z,20.6
2019-05-02T13:48:50.029Z,20.6
2019-05-02T13:50:52.140Z,20.6
2019-05-02T13:52:58.305Z,20.6
2019-05-02T13:54:52.538Z,20.6
2019-05-02T13:56:53.322Z,20.7
2019-05-02T13:58:52.246Z,20.7
2019-05-02T14:00:50.322Z,20.6
2019-05-02T14:02:52.287Z,20.6
2019-05-02T14:04:52.451Z,20.6
2019-05-02T14:06:52.590Z,20.6
2019-05-02T14:08:50.113Z,20.6
2019-05-02T14:10:50.079Z,20.6
2019-05-02T14:12:50.148Z,20.7
2019-05-02T14:14:52.226Z,20.7
2019-05-02T14:16:50.391Z,20.7
2019-05-02T14:18:50.376Z,20.7
2019-05-02T14:20:52.522Z,20.7
2019-05-02T14:22:49.714Z,20.7
2019-05-02T14:24:52.186Z,20.6
2019-05-02T14:26:52.842Z,20.6
2019-05-02T14:28:49.954Z,20.6
2019-05-02T14:30:50.018Z,20.45
2019-05-02T14:32:52.674Z,20.5
2019-05-02T14:34:50.027Z,20.6
2019-05-02T14:37:00.171Z,20.6
2019-05-02T14:38:52.339Z,20.11
2019-05-02T14:40:52.375Z,19.71
2019-05-02T14:42:52.973Z,19.53
2019-05-02T14:46:49.900Z,19.79
2019-05-02T14:48:52.715Z,20.06
2019-05-02T14:50:49.805Z,20.4
2019-05-02T14:52:51.930Z,20.4
2019-05-02T14:54:49.917Z,20.5
2019-05-02T14:56:52.569Z,20.5
2019-05-02T14:58:53.163Z,20.5
2019-05-02T15:00:50.143Z,20.5
2019-05-02T15:02:52.195Z,20.5
2019-05-02T15:04:52.775Z,20.4
2019-05-02T15:06:50.113Z,20.5
2019-05-02T15:08:52.826Z,20.4
2019-05-02T15:10:56.907Z,20.4
2019-05-02T15:13:03.719Z,20.4
2019-05-02T15:14:58.999Z,20.4
2019-05-02T15:16:58.784Z,20.4
2019-05-02T15:18:57.333Z,20.4
2019-05-02T15:20:52.388Z,20.4
2019-05-02T15:22:52.613Z,20.5
2019-05-02T15:24:50.555Z,20.6
2019-05-02T15:26:52.583Z,20.6
2019-05-02T15:28:52.396Z,20.5
2019-05-02T15:30:52.575Z,20.5
2019-05-02T15:32:52.393Z,20.5
2019-05-02T15:34:49.669Z,20.4
2019-05-02T15:36:49.906Z,20.4
2019-05-02T15:38:49.956Z,20.4
2019-05-02T15:40:54.087Z,20.4
2019-05-02T15:43:00.919Z,20.4
2019-05-02T15:44:49.927Z,20.4
2019-05-02T15:46:50.158Z,20.3
2019-05-02T15:48:52.306Z,20.3
2019-05-02T15:51:08.787Z,20.2
2019-05-02T15:52:49.923Z,20.2
2019-05-02T15:55:04.377Z,20.1
2019-05-02T15:57:05.931Z,20.2
2019-05-02T15:58:52.467Z,20.2
2019-05-02T16:01:01.032Z,20.2
2019-05-02T16:03:00.802Z,20.2
2019-05-02T16:05:01.642Z,20.2
2019-05-02T16:06:50.052Z,20.2
2019-05-02T16:08:52.669Z,20.2
2019-05-02T16:10:50.007Z,20.1
2019-05-02T16:12:50.026Z,20.1
2019-05-02T16:14:50.102Z,20.1
2019-05-02T16:16:52.430Z,20.0
2019-05-02T16:18:53.216Z,20.0
2019-05-02T16:21:08.087Z,20.0
2019-05-02T16:22:52.599Z,20.0
2019-05-02T16:24:56.676Z,20.0
2019-05-02T16:26:50.030Z,20.0
2019-05-02T16:28:51.842Z,20.0
2019-05-02T16:30:49.887Z,20.1
2019-05-02T16:32:52.435Z,20.0
2019-05-02T16:34:55.160Z,19.91
2019-05-02T16:36:52.068Z,19.27
2019-05-02T16:38:52.328Z,19.06
2019-05-02T16:40:52.865Z,18.98
2019-05-02T16:42:52.162Z,18.78
2019-05-02T16:44:55.185Z,18.79
2019-05-02T16:46:54.549Z,18.73
2019-05-02T16:48:49.766Z,18.65
2019-05-02T16:50:49.788Z,18.55
2019-05-02T16:52:49.902Z,18.42
2019-05-02T16:54:49.958Z,18.29
2019-05-02T16:56:52.337Z,18.18
2019-05-02T16:58:52.476Z,18.13
2019-05-02T17:00:50.478Z,18.11
2019-05-02T17:02:49.823Z,18.11
2019-05-02T17:04:55.047Z,18.04
2019-05-02T17:06:52.061Z,17.89
2019-05-02T17:08:58.923Z,17.79
2019-05-02T17:10:57.264Z,17.61
2019-05-02T17:13:02.664Z,17.44
2019-05-02T17:14:55.113Z,17.35
2019-05-02T17:16:56.175Z,17.28
2019-05-02T17:18:56.796Z,17.21
2019-05-02T17:20:57.291Z,17.14
2019-05-02T17:23:06.964Z,17.01
2019-05-02T17:24:52.523Z,16.91
2019-05-02T17:26:52.171Z,16.78
2019-05-02T17:28:52.343Z,16.71
2019-05-02T17:30:52.728Z,16.57
2019-05-02T17:32:49.724Z,16.52
2019-05-02T17:34:50.121Z,16.39
2019-05-02T17:36:52.184Z,16.34
2019-05-02T17:38:56.244Z,16.23
2019-05-02T17:41:04.559Z,16.20
2019-05-02T17:43:04.922Z,16.07
2019-05-02T17:45:03.994Z,16.02
2019-05-02T17:47:01.955Z,15.95
2019-05-02T17:48:54.094Z,15.93
2019-05-02T17:51:02.326Z,15.87
2019-05-02T17:52:50.433Z,15.87
2019-05-02T17:54:52.976Z,15.75
2019-05-02T17:56:59.264Z,15.68
2019-05-02T17:58:58.649Z,15.64
2019-05-02T18:01:00.768Z,15.57
2019-05-02T18:02:53.530Z,15.55
2019-05-02T18:04:56.101Z,15.50
2019-05-02T18:06:55.520Z,15.47
2019-05-02T18:08:55.640Z,15.35
2019-05-02T18:11:02.635Z,15.22
2019-05-02T18:13:00.274Z,15.16
2019-05-02T18:15:03.319Z,15.12
2019-05-02T18:16:55.907Z,15.09
2019-05-02T18:18:49.925Z,14.98
2019-05-02T18:20:50.145Z,14.97
2019-05-02T18:22:52.317Z,14.97
2019-05-02T18:24:50.403Z,14.96
2019-05-02T18:26:51.980Z,14.96
2019-05-02T18:28:49.976Z,14.79
2019-05-02T18:30:57.037Z,14.71
2019-05-02T18:32:50.025Z,14.71
2019-05-02T18:35:04.804Z,14.66
2019-05-02T18:37:02.865Z,14.61
2019-05-02T18:39:05.320Z,14.55
2019-05-02T18:40:49.743Z,14.54
2019-05-02T18:43:01.270Z,14.60
2019-05-02T18:44:54.799Z,14.60
2019-05-02T18:46:52.125Z,14.59
2019-05-02T18:48:52.200Z,14.59
2019-05-02T18:50:52.960Z,14.59
2019-05-02T18:52:49.993Z,14.62
2019-05-02T18:54:51.998Z,14.62
2019-05-02T18:56:55.708Z,14.62
2019-05-02T18:58:49.915Z,14.64
2019-05-02T19:00:52.348Z,14.64
2019-05-02T19:02:50.403Z,14.63
2019-05-02T19:04:51.954Z,14.61
2019-05-02T19:06:52.187Z,14.61
2019-05-02T19:08:52.615Z,14.59
2019-05-02T19:11:12.614Z,14.58
2019-05-02T19:12:50.437Z,14.56
2019-05-02T19:14:52.317Z,14.53
2019-05-02T19:16:52.381Z,14.47
2019-05-02T19:18:57.771Z,14.39
2019-05-02T19:20:58.014Z,14.39
2019-05-02T19:22:57.248Z,14.39
2019-05-02T19:24:52.632Z,14.37
2019-05-02T19:26:56.569Z,14.39
2019-05-02T19:28:52.692Z,14.41
2019-05-02T19:30:51.699Z,14.39
2019-05-02T19:32:50.237Z,14.32
2019-05-02T19:34:50.535Z,14.29
2019-05-02T19:36:49.872Z,14.23
2019-05-02T19:38:49.827Z,14.22
2019-05-02T19:40:51.924Z,14.19
2019-05-02T19:42:50.102Z,14.20
2019-05-02T19:44:52.632Z,14.18
2019-05-02T19:46:52.295Z,14.17
2019-05-02T19:48:50.336Z,14.16
2019-05-02T19:50:52.149Z,14.13
2019-05-02T19:53:04.707Z,14.10
2019-05-02T19:54:52.149Z,14.09
2019-05-02T19:56:52.782Z,14.05
2019-05-02T19:58:49.789Z,13.95
2019-05-02T20:00:50.130Z,13.90
2019-05-02T20:02:52.360Z,13.87
2019-05-02T20:04:49.678Z,13.81
2019-05-02T20:06:49.751Z,13.79
2019-05-02T20:09:04.647Z,13.79
2019-05-02T20:10:58.684Z,13.73
2019-05-02T20:12:53.021Z,13.74
2019-05-02T20:14:50.110Z,13.75
2019-05-02T20:16:50.280Z,13.87
2019-05-02T20:18:52.146Z,13.96
2019-05-02T20:20:52.310Z,13.99
2019-05-02T20:22:52.649Z,14.03
2019-05-02T20:25:03.935Z,14.02
2019-05-02T20:26:56.347Z,14.01
2019-05-02T20:28:52.742Z,13.97
2019-05-02T20:30:49.906Z,13.94
2019-05-02T20:32:52.039Z,13.90
2019-05-02T20:34:50.425Z,13.85
2019-05-02T20:36:52.154Z,13.78
2019-05-02T20:38:50.199Z,13.75
2019-05-02T20:40:52.548Z,13.67
2019-05-02T20:42:52.851Z,13.58
2019-05-02T20:44:50.097Z,13.53
2019-05-02T20:46:51.945Z,13.49
2019-05-02T20:48:49.999Z,13.39
2019-05-02T20:50:52.335Z,13.32
2019-05-02T20:52:52.596Z,13.29
2019-05-02T20:54:52.739Z,13.14
2019-05-02T20:56:52.288Z,13.05
2019-05-02T20:58:52.470Z,12.89
2019-05-02T21:01:08.970Z,12.72
2019-05-02T21:02:52.002Z,12.72
2019-05-02T21:04:52.543Z,12.44
2019-05-02T21:06:52.991Z,12.39
2019-05-02T21:08:50.008Z,12.25
2019-05-02T21:10:50.029Z,12.20
2019-05-02T21:12:50.187Z,12.09
2019-05-02T21:14:52.547Z,12.02
2019-05-02T21:16:49.797Z,11.99
2019-05-02T21:18:49.799Z,11.93
2019-05-02T21:20:50.060Z,11.91
2019-05-02T21:22:50.030Z,11.91
2019-05-02T21:24:50.036Z,11.84
2019-05-02T21:26:52.358Z,11.84
2019-05-02T21:28:52.453Z,11.82
2019-05-02T21:30:52.711Z,11.82
2019-05-02T21:32:49.803Z,11.82
2019-05-02T21:34:52.350Z,11.82
2019-05-02T21:36:52.225Z,11.79
2019-05-02T21:38:52.452Z,11.79
2019-05-02T21:40:52.720Z,11.80
2019-05-02T21:42:51.975Z,11.78
2019-05-02T21:44:52.164Z,11.75
2019-05-02T21:46:52.216Z,11.73
2019-05-02T21:48:52.584Z,11.72
2019-05-02T21:50:49.764Z,11.72
2019-05-02T21:52:50.388Z,11.68
2019-05-02T21:54:52.462Z,11.70
2019-05-02T21:56:49.782Z,11.71
2019-05-02T21:58:52.001Z,11.72
2019-05-02T22:00:50.006Z,11.71
2019-05-02T22:02:52.508Z,11.69
2019-05-02T22:04:49.929Z,11.69
2019-05-02T22:06:52.591Z,11.68
2019-05-02T22:08:49.682Z,11.68
2019-05-02T22:10:49.770Z,11.69
2019-05-02T22:12:51.978Z,11.68
2019-05-02T22:14:50.090Z,11.68
2019-05-02T22:16:52.655Z,11.69
2019-05-02T22:18:52.343Z,11.70
2019-05-02T22:20:52.621Z,11.71
2019-05-02T22:22:52.286Z,11.70
2019-05-02T22:24:50.455Z,11.68
2019-05-02T22:26:49.998Z,11.68
2019-05-02T22:28:49.989Z,11.66
2019-05-02T22:30:49.763Z,11.65
2019-05-02T22:32:54.578Z,11.65
2019-05-02T22:34:49.872Z,11.62
2019-05-02T22:36:49.844Z,11.62
2019-05-02T22:38:49.915Z,11.58
2019-05-02T22:40:50.023Z,11.57
2019-05-02T22:42:50.107Z,11.53
2019-05-02T22:44:50.402Z,11.52
2019-05-02T22:46:52.480Z,11.49
2019-05-02T22:48:51.765Z,11.47
2019-05-02T22:50:50.028Z,11.47
2019-05-02T22:52:52.497Z,11.44
2019-05-02T22:54:52.647Z,11.43
2019-05-02T22:56:52.368Z,11.42
2019-05-02T22:58:51.840Z,11.40
2019-05-02T23:00:49.856Z,11.39
2019-05-02T23:02:49.879Z,11.38
2019-05-02T23:04:53.029Z,11.38
2019-05-02T23:06:50.247Z,11.37
2019-05-02T23:08:52.644Z,11.36
2019-05-02T23:10:52.274Z,11.37
2019-05-02T23:12:52.021Z,11.36
2019-05-02T23:14:50.082Z,11.34
2019-05-02T23:16:53.059Z,11.33
2019-05-02T23:18:52.213Z,11.29
2019-05-02T23:20:50.343Z,11.29
2019-05-02T23:22:52.627Z,11.28
2019-05-02T23:24:51.893Z,11.28
2019-05-02T23:26:52.147Z,11.22
2019-05-02T23:28:52.030Z,11.19
2019-05-02T23:30:52.158Z,11.17
2019-05-02T23:32:52.007Z,11.15
2019-05-02T23:34:52.509Z,11.14
2019-05-02T23:36:51.998Z,11.13
2019-05-02T23:38:52.446Z,11.09
2019-05-02T23:40:50.421Z,11.07
2019-05-02T23:42:49.712Z,11.04
2019-05-02T23:44:52.015Z,11.02
2019-05-02T23:46:51.893Z,10.98
2019-05-02T23:48:50.034Z,10.93
2019-05-02T23:50:52.253Z,10.88
2019-05-02T23:52:50.319Z,10.84
2019-05-02T23:54:52.875Z,10.83
2019-05-02T23:56:50.110Z,10.81
2019-05-02T23:58:52.274Z,10.79
